sensor_id;sensor_type;location;lat;lon;timestamp;temperature;humidity
2435;DHT22;1228;51.022;6.764;2023-05-07T00:00:19;15.70;99.90
2435;DHT22;1228;51.022;6.764;2023-05-07T00:02:45;15.80;99.90
2435;DHT22;1228;51.022;6.764;2023-05-07T00:05:11;15.70;99.90
2435;DHT22;1228;51.022;6.764;2023-05-07T00:07:37;15.70;99.90
2435;DHT22;1228;51.022;6.764;2023-05-07T00:10:03;15.60;99.90
2435;DHT22;1228;51.022;6.764;2023-05-07T00:12:29;15.60;99.90
2435;DHT22;1228;51.022;6.764;2023-05-07T00:15:02;15.60;99.90
2435;DHT22;1228;51.022;6.764;2023-05-07T00:17:28;15.60;99.90
2435;DHT22;1228;51.022;6.764;2023-05-07T00:19:53;15.50;99.90
2435;DHT22;1228;51.022;6.764;2023-05-07T00:22:19;15.50;99.90
2435;DHT22;1228;51.022;6.764;2023-05-07T00:24:44;15.50;99.90
2435;DHT22;1228;51.022;6.764;2023-05-07T00:27:10;15.50;99.90
2435;DHT22;1228;51.022;6.764;2023-05-07T00:29:35;15.50;99.90
2435;DHT22;1228;51.022;6.764;2023-05-07T00:32:02;15.40;99.90
2435;DHT22;1228;51.022;6.764;2023-05-07T00:34:27;15.40;99.90
2435;DHT22;1228;51.022;6.764;2023-05-07T00:36:53;15.40;99.90
2435;DHT22;1228;51.022;6.764;2023-05-07T00:39:18;15.30;99.90
2435;DHT22;1228;51.022;6.764;2023-05-07T00:41:44;15.20;99.90
2435;DHT22;1228;51.022;6.764;2023-05-07T00:44:10;15.20;99.90
2435;DHT22;1228;51.022;6.764;2023-05-07T00:46:35;15.10;99.90
2435;DHT22;1228;51.022;6.764;2023-05-07T00:49:01;15.00;99.90
2435;DHT22;1228;51.022;6.764;2023-05-07T00:51:27;14.90;99.90
2435;DHT22;1228;51.022;6.764;2023-05-07T00:53:53;14.90;99.90
2435;DHT22;1228;51.022;6.764;2023-05-07T00:56:21;14.80;99.90
2435;DHT22;1228;51.022;6.764;2023-05-07T00:58:48;14.80;99.90
2435;DHT22;1228;51.022;6.764;2023-05-07T01:01:14;14.80;99.90
2435;DHT22;1228;51.022;6.764;2023-05-07T01:03:42;14.90;99.90
2435;DHT22;1228;51.022;6.764;2023-05-07T01:06:08;14.90;99.90
2435;DHT22;1228;51.022;6.764;2023-05-07T01:08:35;14.90;99.90
2435;DHT22;1228;51.022;6.764;2023-05-07T01:11:02;14.90;99.90
2435;DHT22;1228;51.022;6.764;2023-05-07T01:13:29;15.00;99.90
2435;DHT22;1228;51.022;6.764;2023-05-07T01:15:55;15.00;99.90
2435;DHT22;1228;51.022;6.764;2023-05-07T01:18:20;15.00;99.90
2435;DHT22;1228;51.022;6.764;2023-05-07T01:20:47;15.10;99.90
2435;DHT22;1228;51.022;6.764;2023-05-07T01:23:12;15.10;99.90
2435;DHT22;1228;51.022;6.764;2023-05-07T01:25:38;15.10;99.90
2435;DHT22;1228;51.022;6.764;2023-05-07T01:28:04;15.10;99.90
2435;DHT22;1228;51.022;6.764;2023-05-07T01:30:31;15.20;99.90
2435;DHT22;1228;51.022;6.764;2023-05-07T01:33:08;15.20;99.90
2435;DHT22;1228;51.022;6.764;2023-05-07T01:35:46;15.20;99.90
2435;DHT22;1228;51.022;6.764;2023-05-07T01:38:13;15.20;99.90
2435;DHT22;1228;51.022;6.764;2023-05-07T01:40:39;15.20;99.90
2435;DHT22;1228;51.022;6.764;2023-05-07T01:43:05;15.20;99.90
2435;DHT22;1228;51.022;6.764;2023-05-07T01:45:31;15.20;99.90
2435;DHT22;1228;51.022;6.764;2023-05-07T01:47:58;15.20;99.90
2435;DHT22;1228;51.022;6.764;2023-05-07T01:50:25;15.20;99.90
2435;DHT22;1228;51.022;6.764;2023-05-07T01:52:51;15.20;99.90
2435;DHT22;1228;51.022;6.764;2023-05-07T01:55:17;15.10;99.90
2435;DHT22;1228;51.022;6.764;2023-05-07T01:57:43;15.10;99.90
2435;DHT22;1228;51.022;6.764;2023-05-07T02:00:09;15.10;99.90
2435;DHT22;1228;51.022;6.764;2023-05-07T02:02:35;15.00;99.90
2435;DHT22;1228;51.022;6.764;2023-05-07T02:05:01;15.00;99.90
2435;DHT22;1228;51.022;6.764;2023-05-07T02:07:27;15.00;99.90
2435;DHT22;1228;51.022;6.764;2023-05-07T02:09:53;14.90;99.90
2435;DHT22;1228;51.022;6.764;2023-05-07T02:12:20;14.80;99.90
2435;DHT22;1228;51.022;6.764;2023-05-07T02:14:46;14.80;99.90
2435;DHT22;1228;51.022;6.764;2023-05-07T02:17:12;14.70;99.90
2435;DHT22;1228;51.022;6.764;2023-05-07T02:19:37;14.60;99.90
2435;DHT22;1228;51.022;6.764;2023-05-07T02:22:03;14.50;99.90
2435;DHT22;1228;51.022;6.764;2023-05-07T02:24:29;14.50;99.90
2435;DHT22;1228;51.022;6.764;2023-05-07T02:26:55;14.30;99.90
2435;DHT22;1228;51.022;6.764;2023-05-07T02:29:21;14.20;99.90
2435;DHT22;1228;51.022;6.764;2023-05-07T02:31:46;14.20;99.90
2435;DHT22;1228;51.022;6.764;2023-05-07T02:34:19;14.10;99.90
2435;DHT22;1228;51.022;6.764;2023-05-07T02:36:44;14.00;99.90
2435;DHT22;1228;51.022;6.764;2023-05-07T02:39:12;13.90;99.90
2435;DHT22;1228;51.022;6.764;2023-05-07T02:41:38;13.90;99.90
2435;DHT22;1228;51.022;6.764;2023-05-07T02:44:04;13.80;99.90
2435;DHT22;1228;51.022;6.764;2023-05-07T02:46:29;13.70;99.90
2435;DHT22;1228;51.022;6.764;2023-05-07T02:48:55;13.70;99.90
2435;DHT22;1228;51.022;6.764;2023-05-07T02:51:22;13.70;99.90
2435;DHT22;1228;51.022;6.764;2023-05-07T02:53:48;13.70;99.90
2435;DHT22;1228;51.022;6.764;2023-05-07T02:56:14;13.70;99.90
2435;DHT22;1228;51.022;6.764;2023-05-07T02:58:39;13.70;99.90
2435;DHT22;1228;51.022;6.764;2023-05-07T03:01:06;13.70;99.90
2435;DHT22;1228;51.022;6.764;2023-05-07T03:03:31;13.80;99.90
2435;DHT22;1228;51.022;6.764;2023-05-07T03:05:57;13.80;99.90
2435;DHT22;1228;51.022;6.764;2023-05-07T03:08:23;13.80;99.90
2435;DHT22;1228;51.022;6.764;2023-05-07T03:10:49;13.90;99.90
2435;DHT22;1228;51.022;6.764;2023-05-07T03:13:14;14.00;99.90
2435;DHT22;1228;51.022;6.764;2023-05-07T03:15:40;14.00;99.90
2435;DHT22;1228;51.022;6.764;2023-05-07T03:18:06;14.00;99.90
2435;DHT22;1228;51.022;6.764;2023-05-07T03:20:31;14.00;99.90
2435;DHT22;1228;51.022;6.764;2023-05-07T03:22:57;14.00;99.90
2435;DHT22;1228;51.022;6.764;2023-05-07T03:25:23;14.00;99.90
2435;DHT22;1228;51.022;6.764;2023-05-07T03:27:48;14.00;99.90
2435;DHT22;1228;51.022;6.764;2023-05-07T03:30:14;14.00;99.90
2435;DHT22;1228;51.022;6.764;2023-05-07T03:32:40;14.00;99.90
2435;DHT22;1228;51.022;6.764;2023-05-07T03:35:06;14.00;99.90
2435;DHT22;1228;51.022;6.764;2023-05-07T03:37:31;14.00;99.90
2435;DHT22;1228;51.022;6.764;2023-05-07T03:39:57;14.00;99.90
2435;DHT22;1228;51.022;6.764;2023-05-07T03:42:23;13.90;99.90
2435;DHT22;1228;51.022;6.764;2023-05-07T03:44:48;13.80;99.90
2435;DHT22;1228;51.022;6.764;2023-05-07T03:47:14;13.80;99.90
2435;DHT22;1228;51.022;6.764;2023-05-07T03:49:40;13.80;99.90
2435;DHT22;1228;51.022;6.764;2023-05-07T03:52:06;13.70;99.90
2435;DHT22;1228;51.022;6.764;2023-05-07T03:54:31;13.70;99.90
2435;DHT22;1228;51.022;6.764;2023-05-07T03:56:57;13.70;99.90
2435;DHT22;1228;51.022;6.764;2023-05-07T03:59:23;13.70;99.90
2435;DHT22;1228;51.022;6.764;2023-05-07T04:01:48;13.60;99.90
2435;DHT22;1228;51.022;6.764;2023-05-07T04:04:14;13.70;99.90
2435;DHT22;1228;51.022;6.764;2023-05-07T04:06:40;13.70;99.90
2435;DHT22;1228;51.022;6.764;2023-05-07T04:09:06;13.60;99.90
2435;DHT22;1228;51.022;6.764;2023-05-07T04:11:32;13.60;99.90
2435;DHT22;1228;51.022;6.764;2023-05-07T04:13:57;13.60;99.90
2435;DHT22;1228;51.022;6.764;2023-05-07T04:16:23;13.60;99.90
2435;DHT22;1228;51.022;6.764;2023-05-07T04:18:48;13.60;99.90
2435;DHT22;1228;51.022;6.764;2023-05-07T04:21:16;13.60;99.90
2435;DHT22;1228;51.022;6.764;2023-05-07T04:23:41;13.70;99.90
2435;DHT22;1228;51.022;6.764;2023-05-07T04:26:07;13.70;99.90
2435;DHT22;1228;51.022;6.764;2023-05-07T04:28:33;13.80;99.90
2435;DHT22;1228;51.022;6.764;2023-05-07T04:30:59;13.80;99.90
2435;DHT22;1228;51.022;6.764;2023-05-07T04:33:25;13.90;99.90
2435;DHT22;1228;51.022;6.764;2023-05-07T04:35:50;13.90;99.90
2435;DHT22;1228;51.022;6.764;2023-05-07T04:38:16;14.00;99.90
2435;DHT22;1228;51.022;6.764;2023-05-07T04:40:42;14.10;99.90
2435;DHT22;1228;51.022;6.764;2023-05-07T04:43:07;14.10;99.90
2435;DHT22;1228;51.022;6.764;2023-05-07T04:45:35;14.20;99.90
2435;DHT22;1228;51.022;6.764;2023-05-07T04:48:00;14.30;99.90
2435;DHT22;1228;51.022;6.764;2023-05-07T04:50:26;14.50;99.90
2435;DHT22;1228;51.022;6.764;2023-05-07T04:52:52;14.60;99.90
2435;DHT22;1228;51.022;6.764;2023-05-07T04:55:17;14.60;99.90
2435;DHT22;1228;51.022;6.764;2023-05-07T04:57:43;14.70;99.90
2435;DHT22;1228;51.022;6.764;2023-05-07T05:00:09;14.70;99.90
2435;DHT22;1228;51.022;6.764;2023-05-07T05:02:35;14.80;99.90
2435;DHT22;1228;51.022;6.764;2023-05-07T05:05:01;14.80;99.90
2435;DHT22;1228;51.022;6.764;2023-05-07T05:07:28;14.90;99.90
2435;DHT22;1228;51.022;6.764;2023-05-07T05:09:54;15.00;99.90
2435;DHT22;1228;51.022;6.764;2023-05-07T05:12:20;15.10;99.90
2435;DHT22;1228;51.022;6.764;2023-05-07T05:14:45;15.20;99.90
2435;DHT22;1228;51.022;6.764;2023-05-07T05:17:11;15.20;99.90
2435;DHT22;1228;51.022;6.764;2023-05-07T05:19:36;15.20;99.90
2435;DHT22;1228;51.022;6.764;2023-05-07T05:22:02;15.30;99.90
2435;DHT22;1228;51.022;6.764;2023-05-07T05:24:29;15.40;99.90
2435;DHT22;1228;51.022;6.764;2023-05-07T05:26:55;15.40;99.90
2435;DHT22;1228;51.022;6.764;2023-05-07T05:29:21;15.50;99.90
2435;DHT22;1228;51.022;6.764;2023-05-07T05:31:47;15.50;99.90
2435;DHT22;1228;51.022;6.764;2023-05-07T05:34:12;15.50;99.90
2435;DHT22;1228;51.022;6.764;2023-05-07T05:36:38;15.60;99.90
2435;DHT22;1228;51.022;6.764;2023-05-07T05:39:04;15.60;99.90
2435;DHT22;1228;51.022;6.764;2023-05-07T05:41:30;15.70;99.90
2435;DHT22;1228;51.022;6.764;2023-05-07T05:43:55;15.70;99.90
2435;DHT22;1228;51.022;6.764;2023-05-07T05:46:21;15.70;99.90
2435;DHT22;1228;51.022;6.764;2023-05-07T05:48:47;15.80;99.90
2435;DHT22;1228;51.022;6.764;2023-05-07T05:51:12;15.80;99.90
2435;DHT22;1228;51.022;6.764;2023-05-07T05:53:38;15.90;99.90
2435;DHT22;1228;51.022;6.764;2023-05-07T05:56:04;15.90;99.90
2435;DHT22;1228;51.022;6.764;2023-05-07T05:58:30;16.00;99.90
2435;DHT22;1228;51.022;6.764;2023-05-07T06:00:55;16.00;99.90
2435;DHT22;1228;51.022;6.764;2023-05-07T06:03:21;16.00;99.90
2435;DHT22;1228;51.022;6.764;2023-05-07T06:05:47;16.10;99.90
2435;DHT22;1228;51.022;6.764;2023-05-07T06:08:13;16.30;99.90
2435;DHT22;1228;51.022;6.764;2023-05-07T06:10:38;16.40;99.90
2435;DHT22;1228;51.022;6.764;2023-05-07T06:13:04;16.50;99.90
2435;DHT22;1228;51.022;6.764;2023-05-07T06:15:30;16.60;99.90
2435;DHT22;1228;51.022;6.764;2023-05-07T06:17:56;16.70;99.90
2435;DHT22;1228;51.022;6.764;2023-05-07T06:20:23;16.90;99.90
2435;DHT22;1228;51.022;6.764;2023-05-07T06:22:48;17.00;99.90
2435;DHT22;1228;51.022;6.764;2023-05-07T06:25:14;17.20;99.90
2435;DHT22;1228;51.022;6.764;2023-05-07T06:27:40;17.40;99.90
2435;DHT22;1228;51.022;6.764;2023-05-07T06:30:06;17.60;99.90
2435;DHT22;1228;51.022;6.764;2023-05-07T06:32:32;17.80;99.90
2435;DHT22;1228;51.022;6.764;2023-05-07T06:34:58;17.90;99.90
2435;DHT22;1228;51.022;6.764;2023-05-07T06:37:23;18.10;99.90
2435;DHT22;1228;51.022;6.764;2023-05-07T06:39:49;18.40;99.90
2435;DHT22;1228;51.022;6.764;2023-05-07T06:42:15;18.60;99.90
2435;DHT22;1228;51.022;6.764;2023-05-07T06:44:40;18.70;99.90
2435;DHT22;1228;51.022;6.764;2023-05-07T06:47:06;19.00;99.90
2435;DHT22;1228;51.022;6.764;2023-05-07T06:49:31;19.20;99.90
2435;DHT22;1228;51.022;6.764;2023-05-07T06:51:57;19.30;99.90
2435;DHT22;1228;51.022;6.764;2023-05-07T06:54:23;19.30;99.90
2435;DHT22;1228;51.022;6.764;2023-05-07T06:56:49;19.40;99.90
2435;DHT22;1228;51.022;6.764;2023-05-07T06:59:15;19.40;99.90
2435;DHT22;1228;51.022;6.764;2023-05-07T07:01:41;19.50;99.90
2435;DHT22;1228;51.022;6.764;2023-05-07T07:04:07;19.60;99.90
2435;DHT22;1228;51.022;6.764;2023-05-07T07:06:32;19.60;99.90
2435;DHT22;1228;51.022;6.764;2023-05-07T07:08:59;19.80;99.90
2435;DHT22;1228;51.022;6.764;2023-05-07T07:11:25;20.00;99.90
2435;DHT22;1228;51.022;6.764;2023-05-07T07:13:50;20.30;99.90
2435;DHT22;1228;51.022;6.764;2023-05-07T07:16:16;20.70;99.90
2435;DHT22;1228;51.022;6.764;2023-05-07T07:18:43;21.10;99.90
2435;DHT22;1228;51.022;6.764;2023-05-07T07:21:09;21.40;99.90
2435;DHT22;1228;51.022;6.764;2023-05-07T07:23:35;21.70;99.90
2435;DHT22;1228;51.022;6.764;2023-05-07T07:26:00;22.00;99.90
2435;DHT22;1228;51.022;6.764;2023-05-07T07:28:26;22.30;99.90
2435;DHT22;1228;51.022;6.764;2023-05-07T07:30:51;22.50;99.90
2435;DHT22;1228;51.022;6.764;2023-05-07T07:33:17;22.60;99.90
2435;DHT22;1228;51.022;6.764;2023-05-07T07:35:42;22.60;99.90
2435;DHT22;1228;51.022;6.764;2023-05-07T07:38:08;22.70;99.90
2435;DHT22;1228;51.022;6.764;2023-05-07T07:40:37;23.10;99.90
2435;DHT22;1228;51.022;6.764;2023-05-07T07:43:02;23.50;99.90
2435;DHT22;1228;51.022;6.764;2023-05-07T07:45:28;23.70;99.90
2435;DHT22;1228;51.022;6.764;2023-05-07T07:47:54;23.70;99.90
2435;DHT22;1228;51.022;6.764;2023-05-07T07:50:20;23.80;99.90
2435;DHT22;1228;51.022;6.764;2023-05-07T07:52:45;23.90;99.90
2435;DHT22;1228;51.022;6.764;2023-05-07T07:55:11;23.90;99.90
2435;DHT22;1228;51.022;6.764;2023-05-07T07:57:37;23.70;99.90
2435;DHT22;1228;51.022;6.764;2023-05-07T08:00:03;23.50;99.90
2435;DHT22;1228;51.022;6.764;2023-05-07T08:02:29;23.30;99.90
2435;DHT22;1228;51.022;6.764;2023-05-07T08:04:54;23.30;99.90
2435;DHT22;1228;51.022;6.764;2023-05-07T08:07:21;23.00;99.90
2435;DHT22;1228;51.022;6.764;2023-05-07T08:09:48;23.20;99.90
2435;DHT22;1228;51.022;6.764;2023-05-07T08:12:14;23.50;99.90
2435;DHT22;1228;51.022;6.764;2023-05-07T08:14:40;23.90;99.90
2435;DHT22;1228;51.022;6.764;2023-05-07T08:17:06;24.50;99.90
2435;DHT22;1228;51.022;6.764;2023-05-07T08:19:32;25.20;99.90
2435;DHT22;1228;51.022;6.764;2023-05-07T08:21:57;25.60;99.90
2435;DHT22;1228;51.022;6.764;2023-05-07T08:24:23;25.60;99.90
2435;DHT22;1228;51.022;6.764;2023-05-07T08:26:48;25.30;99.90
2435;DHT22;1228;51.022;6.764;2023-05-07T08:29:15;25.20;99.90
2435;DHT22;1228;51.022;6.764;2023-05-07T08:31:40;25.10;99.90
2435;DHT22;1228;51.022;6.764;2023-05-07T08:34:06;25.10;99.90
2435;DHT22;1228;51.022;6.764;2023-05-07T08:36:32;25.10;99.90
2435;DHT22;1228;51.022;6.764;2023-05-07T08:38:58;25.20;99.90
2435;DHT22;1228;51.022;6.764;2023-05-07T08:41:24;25.40;99.90
2435;DHT22;1228;51.022;6.764;2023-05-07T08:43:50;25.60;99.90
2435;DHT22;1228;51.022;6.764;2023-05-07T08:46:22;25.60;99.90
2435;DHT22;1228;51.022;6.764;2023-05-07T08:48:49;25.30;99.90
2435;DHT22;1228;51.022;6.764;2023-05-07T08:51:18;25.30;99.90
2435;DHT22;1228;51.022;6.764;2023-05-07T08:53:45;25.20;99.90
2435;DHT22;1228;51.022;6.764;2023-05-07T08:56:12;24.90;99.90
2435;DHT22;1228;51.022;6.764;2023-05-07T08:58:38;24.90;99.90
2435;DHT22;1228;51.022;6.764;2023-05-07T09:01:08;25.00;99.90
2435;DHT22;1228;51.022;6.764;2023-05-07T09:03:36;25.20;99.90
2435;DHT22;1228;51.022;6.764;2023-05-07T09:06:01;25.50;99.90
2435;DHT22;1228;51.022;6.764;2023-05-07T09:08:27;25.70;99.90
2435;DHT22;1228;51.022;6.764;2023-05-07T09:10:53;26.00;99.90
2435;DHT22;1228;51.022;6.764;2023-05-07T09:13:20;26.10;99.90
2435;DHT22;1228;51.022;6.764;2023-05-07T09:15:45;26.20;99.90
2435;DHT22;1228;51.022;6.764;2023-05-07T09:18:12;26.50;99.90
2435;DHT22;1228;51.022;6.764;2023-05-07T09:20:38;26.70;99.90
2435;DHT22;1228;51.022;6.764;2023-05-07T09:23:05;26.90;99.90
2435;DHT22;1228;51.022;6.764;2023-05-07T09:25:33;27.10;99.90
2435;DHT22;1228;51.022;6.764;2023-05-07T09:28:03;27.10;99.90
2435;DHT22;1228;51.022;6.764;2023-05-07T09:30:33;27.50;99.90
2435;DHT22;1228;51.022;6.764;2023-05-07T09:32:59;27.80;99.90
2435;DHT22;1228;51.022;6.764;2023-05-07T09:35:26;28.30;99.90
2435;DHT22;1228;51.022;6.764;2023-05-07T09:37:59;28.60;99.90
2435;DHT22;1228;51.022;6.764;2023-05-07T09:40:29;28.70;99.90
2435;DHT22;1228;51.022;6.764;2023-05-07T09:42:55;28.90;99.90
2435;DHT22;1228;51.022;6.764;2023-05-07T09:45:27;29.40;99.90
2435;DHT22;1228;51.022;6.764;2023-05-07T09:47:56;29.90;99.90
2435;DHT22;1228;51.022;6.764;2023-05-07T09:50:27;30.30;99.90
2435;DHT22;1228;51.022;6.764;2023-05-07T09:52:54;31.00;99.90
2435;DHT22;1228;51.022;6.764;2023-05-07T09:55:21;31.10;99.90
2435;DHT22;1228;51.022;6.764;2023-05-07T09:57:50;31.20;99.90
2435;DHT22;1228;51.022;6.764;2023-05-07T10:00:17;31.50;99.90
2435;DHT22;1228;51.022;6.764;2023-05-07T10:02:46;31.70;99.90
2435;DHT22;1228;51.022;6.764;2023-05-07T10:05:14;31.80;99.90
2435;DHT22;1228;51.022;6.764;2023-05-07T10:07:40;31.60;99.90
2435;DHT22;1228;51.022;6.764;2023-05-07T10:10:06;31.20;99.90
2435;DHT22;1228;51.022;6.764;2023-05-07T10:12:32;30.90;99.90
2435;DHT22;1228;51.022;6.764;2023-05-07T10:15:08;31.00;99.90
2435;DHT22;1228;51.022;6.764;2023-05-07T10:17:39;30.80;99.90
2435;DHT22;1228;51.022;6.764;2023-05-07T10:20:06;30.60;99.90
2435;DHT22;1228;51.022;6.764;2023-05-07T10:22:39;30.60;99.90
2435;DHT22;1228;51.022;6.764;2023-05-07T10:25:30;30.90;99.90
2435;DHT22;1228;51.022;6.764;2023-05-07T10:28:01;31.40;99.90
2435;DHT22;1228;51.022;6.764;2023-05-07T10:30:59;31.90;99.90
2435;DHT22;1228;51.022;6.764;2023-05-07T10:33:29;32.20;99.90
2435;DHT22;1228;51.022;6.764;2023-05-07T10:36:00;32.00;99.90
2435;DHT22;1228;51.022;6.764;2023-05-07T10:38:27;32.20;99.90
2435;DHT22;1228;51.022;6.764;2023-05-07T10:40:53;32.30;99.90
2435;DHT22;1228;51.022;6.764;2023-05-07T10:43:19;32.50;99.90
2435;DHT22;1228;51.022;6.764;2023-05-07T10:46:17;32.40;99.90
2435;DHT22;1228;51.022;6.764;2023-05-07T10:51:31;31.60;99.90
2435;DHT22;1228;51.022;6.764;2023-05-07T10:56:39;30.70;99.90
2435;DHT22;1228;51.022;6.764;2023-05-07T11:04:15;29.80;99.90
2435;DHT22;1228;51.022;6.764;2023-05-07T11:12:18;29.60;99.90
2435;DHT22;1228;51.022;6.764;2023-05-07T11:15:10;29.60;99.90
2435;DHT22;1228;51.022;6.764;2023-05-07T11:18:02;29.30;99.90
2435;DHT22;1228;51.022;6.764;2023-05-07T11:20:54;28.70;99.90
2435;DHT22;1228;51.022;6.764;2023-05-07T11:26:07;28.20;99.90
2435;DHT22;1228;51.022;6.764;2023-05-07T11:28:38;28.10;99.90
2435;DHT22;1228;51.022;6.764;2023-05-07T11:31:04;27.90;99.90
2435;DHT22;1228;51.022;6.764;2023-05-07T11:33:30;27.90;99.90
2435;DHT22;1228;51.022;6.764;2023-05-07T11:35:56;27.90;99.90
2435;DHT22;1228;51.022;6.764;2023-05-07T11:38:22;28.00;99.90
2435;DHT22;1228;51.022;6.764;2023-05-07T11:40:52;28.40;99.90
2435;DHT22;1228;51.022;6.764;2023-05-07T11:43:18;28.50;99.90
2435;DHT22;1228;51.022;6.764;2023-05-07T11:45:47;28.80;99.90
2435;DHT22;1228;51.022;6.764;2023-05-07T11:48:14;29.20;99.90
2435;DHT22;1228;51.022;6.764;2023-05-07T11:50:53;29.80;99.90
2435;DHT22;1228;51.022;6.764;2023-05-07T11:53:19;30.40;99.90
2435;DHT22;1228;51.022;6.764;2023-05-07T11:55:45;30.90;99.90
2435;DHT22;1228;51.022;6.764;2023-05-07T11:58:12;31.10;99.90
2435;DHT22;1228;51.022;6.764;2023-05-07T12:00:52;31.00;99.90
2435;DHT22;1228;51.022;6.764;2023-05-07T12:03:19;30.30;99.90
2435;DHT22;1228;51.022;6.764;2023-05-07T12:05:45;29.80;99.90
2435;DHT22;1228;51.022;6.764;2023-05-07T12:08:18;29.40;99.90
2435;DHT22;1228;51.022;6.764;2023-05-07T12:10:45;29.00;99.90
2435;DHT22;1228;51.022;6.764;2023-05-07T12:13:18;28.70;99.90
2435;DHT22;1228;51.022;6.764;2023-05-07T12:15:43;28.40;99.90
2435;DHT22;1228;51.022;6.764;2023-05-07T12:18:10;28.20;99.90
2435;DHT22;1228;51.022;6.764;2023-05-07T12:20:36;27.90;99.90
2435;DHT22;1228;51.022;6.764;2023-05-07T12:23:03;27.80;99.90
2435;DHT22;1228;51.022;6.764;2023-05-07T12:25:35;27.60;99.90
2435;DHT22;1228;51.022;6.764;2023-05-07T12:28:05;27.40;99.90
2435;DHT22;1228;51.022;6.764;2023-05-07T12:30:40;27.50;99.90
2435;DHT22;1228;51.022;6.764;2023-05-07T12:33:07;27.70;99.90
2435;DHT22;1228;51.022;6.764;2023-05-07T12:35:38;27.80;99.90
2435;DHT22;1228;51.022;6.764;2023-05-07T12:38:17;27.90;99.90
2435;DHT22;1228;51.022;6.764;2023-05-07T12:40:54;28.10;99.90
2435;DHT22;1228;51.022;6.764;2023-05-07T12:43:23;27.90;99.90
2435;DHT22;1228;51.022;6.764;2023-05-07T12:45:50;28.10;99.90
2435;DHT22;1228;51.022;6.764;2023-05-07T12:48:16;28.00;99.90
2435;DHT22;1228;51.022;6.764;2023-05-07T12:50:42;28.00;99.90
2435;DHT22;1228;51.022;6.764;2023-05-07T12:53:10;27.80;99.90
2435;DHT22;1228;51.022;6.764;2023-05-07T12:55:48;27.70;99.90
2435;DHT22;1228;51.022;6.764;2023-05-07T12:58:17;27.70;99.90
2435;DHT22;1228;51.022;6.764;2023-05-07T13:00:44;27.90;99.90
2435;DHT22;1228;51.022;6.764;2023-05-07T13:03:11;27.80;99.90
2435;DHT22;1228;51.022;6.764;2023-05-07T13:05:36;27.80;99.90
2435;DHT22;1228;51.022;6.764;2023-05-07T13:08:02;27.70;99.90
2435;DHT22;1228;51.022;6.764;2023-05-07T13:10:28;27.70;99.90
2435;DHT22;1228;51.022;6.764;2023-05-07T13:12:54;27.40;99.90
2435;DHT22;1228;51.022;6.764;2023-05-07T13:15:20;27.30;99.90
2435;DHT22;1228;51.022;6.764;2023-05-07T13:17:46;27.10;99.90
2435;DHT22;1228;51.022;6.764;2023-05-07T13:20:12;27.00;99.90
2435;DHT22;1228;51.022;6.764;2023-05-07T13:22:38;26.90;99.90
2435;DHT22;1228;51.022;6.764;2023-05-07T13:25:04;26.90;99.90
2435;DHT22;1228;51.022;6.764;2023-05-07T13:27:30;26.80;99.90
2435;DHT22;1228;51.022;6.764;2023-05-07T13:29:56;26.70;99.90
2435;DHT22;1228;51.022;6.764;2023-05-07T13:32:22;26.70;99.90
2435;DHT22;1228;51.022;6.764;2023-05-07T13:34:48;26.40;99.90
2435;DHT22;1228;51.022;6.764;2023-05-07T13:37:14;25.90;99.90
2435;DHT22;1228;51.022;6.764;2023-05-07T13:39:39;25.60;99.90
2435;DHT22;1228;51.022;6.764;2023-05-07T13:42:06;25.30;99.90
2435;DHT22;1228;51.022;6.764;2023-05-07T13:44:32;25.00;99.90
2435;DHT22;1228;51.022;6.764;2023-05-07T13:46:57;24.60;99.90
2435;DHT22;1228;51.022;6.764;2023-05-07T13:49:23;24.40;99.90
2435;DHT22;1228;51.022;6.764;2023-05-07T13:51:49;24.20;99.90
2435;DHT22;1228;51.022;6.764;2023-05-07T13:54:15;23.90;99.90
2435;DHT22;1228;51.022;6.764;2023-05-07T13:56:41;23.70;99.90
2435;DHT22;1228;51.022;6.764;2023-05-07T13:59:07;23.60;99.90
2435;DHT22;1228;51.022;6.764;2023-05-07T14:01:32;23.50;99.90
2435;DHT22;1228;51.022;6.764;2023-05-07T14:03:58;23.40;99.90
2435;DHT22;1228;51.022;6.764;2023-05-07T14:06:24;23.30;99.90
2435;DHT22;1228;51.022;6.764;2023-05-07T14:08:50;23.20;99.90
2435;DHT22;1228;51.022;6.764;2023-05-07T14:11:16;23.00;99.90
2435;DHT22;1228;51.022;6.764;2023-05-07T14:13:41;22.90;99.90
2435;DHT22;1228;51.022;6.764;2023-05-07T14:16:07;22.60;99.90
2435;DHT22;1228;51.022;6.764;2023-05-07T14:18:33;22.30;99.90
2435;DHT22;1228;51.022;6.764;2023-05-07T14:20:59;22.00;99.90
2435;DHT22;1228;51.022;6.764;2023-05-07T14:23:25;21.70;99.90
2435;DHT22;1228;51.022;6.764;2023-05-07T14:25:52;21.50;99.90
2435;DHT22;1228;51.022;6.764;2023-05-07T14:28:18;21.50;99.90
2435;DHT22;1228;51.022;6.764;2023-05-07T14:30:44;21.40;99.90
2435;DHT22;1228;51.022;6.764;2023-05-07T14:33:10;21.30;99.90
2435;DHT22;1228;51.022;6.764;2023-05-07T14:35:35;21.20;99.90
2435;DHT22;1228;51.022;6.764;2023-05-07T14:38:01;21.10;99.90
2435;DHT22;1228;51.022;6.764;2023-05-07T14:40:27;21.20;99.90
2435;DHT22;1228;51.022;6.764;2023-05-07T14:42:52;21.10;99.90
2435;DHT22;1228;51.022;6.764;2023-05-07T14:45:18;21.20;99.90
2435;DHT22;1228;51.022;6.764;2023-05-07T14:47:43;21.40;99.90
2435;DHT22;1228;51.022;6.764;2023-05-07T14:50:09;21.60;99.90
2435;DHT22;1228;51.022;6.764;2023-05-07T14:52:35;21.90;99.90
2435;DHT22;1228;51.022;6.764;2023-05-07T14:55:00;22.00;99.90
2435;DHT22;1228;51.022;6.764;2023-05-07T14:57:26;21.90;99.90
2435;DHT22;1228;51.022;6.764;2023-05-07T14:59:51;21.80;99.90
2435;DHT22;1228;51.022;6.764;2023-05-07T15:02:17;21.80;99.90
2435;DHT22;1228;51.022;6.764;2023-05-07T15:04:43;21.70;99.90
2435;DHT22;1228;51.022;6.764;2023-05-07T15:07:12;21.70;99.90
2435;DHT22;1228;51.022;6.764;2023-05-07T15:09:43;21.80;99.90
2435;DHT22;1228;51.022;6.764;2023-05-07T15:12:09;22.00;99.90
2435;DHT22;1228;51.022;6.764;2023-05-07T15:14:35;22.20;99.90
2435;DHT22;1228;51.022;6.764;2023-05-07T15:17:00;22.40;99.90
2435;DHT22;1228;51.022;6.764;2023-05-07T15:19:26;22.80;99.90
2435;DHT22;1228;51.022;6.764;2023-05-07T15:21:58;23.10;99.90
2435;DHT22;1228;51.022;6.764;2023-05-07T15:24:24;23.30;99.90
2435;DHT22;1228;51.022;6.764;2023-05-07T15:26:52;23.40;99.90
2435;DHT22;1228;51.022;6.764;2023-05-07T15:29:17;23.50;99.90
2435;DHT22;1228;51.022;6.764;2023-05-07T15:31:44;23.40;99.90
2435;DHT22;1228;51.022;6.764;2023-05-07T15:34:09;23.40;99.90
2435;DHT22;1228;51.022;6.764;2023-05-07T15:36:35;23.00;99.90
2435;DHT22;1228;51.022;6.764;2023-05-07T15:39:01;22.80;99.90
2435;DHT22;1228;51.022;6.764;2023-05-07T15:41:28;22.70;99.90
2435;DHT22;1228;51.022;6.764;2023-05-07T15:43:53;22.60;99.90
2435;DHT22;1228;51.022;6.764;2023-05-07T15:46:23;22.40;99.90
2435;DHT22;1228;51.022;6.764;2023-05-07T15:48:50;22.40;99.90
2435;DHT22;1228;51.022;6.764;2023-05-07T15:51:16;22.30;99.90
2435;DHT22;1228;51.022;6.764;2023-05-07T15:53:43;22.30;99.90
2435;DHT22;1228;51.022;6.764;2023-05-07T15:56:08;22.30;99.90
2435;DHT22;1228;51.022;6.764;2023-05-07T15:58:34;22.20;99.90
2435;DHT22;1228;51.022;6.764;2023-05-07T16:01:01;22.20;99.90
2435;DHT22;1228;51.022;6.764;2023-05-07T16:03:27;22.20;99.90
2435;DHT22;1228;51.022;6.764;2023-05-07T16:05:56;22.30;99.90
2435;DHT22;1228;51.022;6.764;2023-05-07T16:08:27;22.30;99.90
2435;DHT22;1228;51.022;6.764;2023-05-07T16:10:53;22.30;99.90
2435;DHT22;1228;51.022;6.764;2023-05-07T16:13:19;22.30;99.90
2435;DHT22;1228;51.022;6.764;2023-05-07T16:15:45;22.20;99.90
2435;DHT22;1228;51.022;6.764;2023-05-07T16:18:11;22.30;99.90